Home   Weather   USA   Mesquite   Past weeks
Flag for USA

Past Weather in Mesquite, Texas, USA — February 2021

Currently: 64 °F. Overcast. (Weather station: Mesquite Metro Airport, USA). See more current weather

February 2021 Weather in Mesquite — Graph

°F

High & Low Weather Summary for February 2021

 TemperatureHumidityPressure
High77 °F (Feb 23, 3:50 pm)100% (Feb 6, 11:10 am)30.56 "Hg (Feb 6, 11:10 am)
Low-1 °F (Feb 16, 6:15 am)20% (Feb 5, 2:50 pm)29.68 "Hg (Feb 4, 5:55 am)
Average39 °F77%30.12 "Hg
* Reported Feb 1 12:35 am — Feb 28 11:55 pm, Mesquite. Weather by CustomWeather, © 2024

Note: Actual official high and low records may vary slightly from our data, if they occured in-between our weather recording intervals... More about our weather records

Mesquite Weather History for February 1, 2021

Scroll right to see more
 ConditionsComfort  
Time TempWeatherWind HumidityBarometerVisibility
12:35 am
Mon, Feb 1
43 °FClear.9 mph65%30.38 "Hg10 mi
1:55 am41 °FClear.8 mph71%30.39 "Hg10 mi
2:15 am40 °FClear.7 mph73%30.39 "Hg10 mi
2:35 am39 °FClear.6 mph75%30.39 "Hg10 mi
2:55 am39 °FClear.8 mph77%30.39 "Hg10 mi
3:15 am39 °FClear.9 mph76%30.40 "Hg10 mi
3:35 am39 °FClear.10 mph77%30.40 "Hg10 mi
3:55 am39 °FClear.10 mph76%30.40 "Hg10 mi
4:15 am38 °FClear.9 mph78%30.40 "Hg10 mi
4:35 am38 °FClear.9 mph78%30.41 "Hg10 mi
4:55 am38 °FClear.8 mph79%30.42 "Hg10 mi
5:15 am37 °FClear.7 mph81%30.42 "Hg10 mi
5:35 am36 °FClear.6 mph81%30.42 "Hg10 mi
5:55 am36 °FClear.8 mph82%30.43 "Hg10 mi
6:15 am36 °FClear.8 mph84%30.44 "Hg10 mi
6:50 am36 °FClear.8 mph81%30.45 "Hg10 mi
7:50 am34 °FSunny.7 mph87%30.45 "Hg10 mi
8:50 am39 °FSunny.10 mph70%30.46 "Hg10 mi
9:50 am43 °FSunny.10 mph61%30.46 "Hg10 mi
10:50 am46 °FSunny.9 mph53%30.46 "Hg10 mi
11:50 am50 °FSunny.7 mph47%30.45 "Hg10 mi
12:50 pm54 °FSunny.12 mph41%30.41 "Hg10 mi
1:50 pm55 °FSunny.12 mph33%30.38 "Hg10 mi
2:50 pm55 °FSunny.9 mph33%30.35 "Hg10 mi
3:50 pm57 °FSunny.14 mph31%30.35 "Hg10 mi
4:50 pm55 °FSunny.9 mph31%30.34 "Hg10 mi
5:50 pm52 °FSunny.9 mph38%30.34 "Hg10 mi
6:50 pm50 °FClear.6 mph43%30.34 "Hg10 mi
7:50 pm46 °FClear.No wind57%30.34 "Hg10 mi
8:55 pm43 °FClear.No wind64%30.34 "Hg10 mi
9:15 pm42 °FClear.No wind68%30.35 "Hg10 mi
9:35 pm40 °FClear.No wind72%30.34 "Hg10 mi
9:55 pm40 °FClear.No wind74%30.34 "Hg10 mi
10:15 pm39 °FClear.No wind77%30.34 "Hg10 mi
10:35 pm37 °FClear.No wind80%30.34 "Hg10 mi
10:55 pm40 °FClear.No wind72%30.34 "Hg10 mi
11:15 pm37 °FClear.No wind84%30.34 "Hg10 mi
11:35 pm36 °FClear.No wind82%30.33 "Hg10 mi
11:55 pm37 °FClear.No wind86%30.33 "Hg10 mi
Weather by CustomWeather, © 2024

See weather overview